createdAt,value
2023-02-17T00:00:35.577Z,43.48
2023-02-17T00:01:39.512Z,43.40
2023-02-17T00:02:42.408Z,43.43
2023-02-17T00:03:46.755Z,43.37
2023-02-17T00:04:49.820Z,43.36
2023-02-17T00:05:52.989Z,43.34
2023-02-17T00:06:56.059Z,43.29
2023-02-17T00:07:59.094Z,43.26
2023-02-17T00:09:01.984Z,43.21
2023-02-17T00:10:06.425Z,43.24
2023-02-17T00:11:10.016Z,43.21
2023-02-17T00:12:13.526Z,43.21
2023-02-17T00:13:16.686Z,43.19
2023-02-17T00:14:21.197Z,43.19
2023-02-17T00:15:24.686Z,43.17
2023-02-17T00:16:32.646Z,43.16
2023-02-17T00:17:36.987Z,43.16
2023-02-17T00:18:44.870Z,43.14
2023-02-17T00:19:48.232Z,43.15
2023-02-17T00:20:50.998Z,43.15
2023-02-17T00:21:56.137Z,43.15
2023-02-17T00:22:58.868Z,43.15
2023-02-17T00:24:01.168Z,43.12
2023-02-17T00:25:06.001Z,43.12
2023-02-17T00:26:08.796Z,43.11
2023-02-17T00:27:11.849Z,43.12
2023-02-17T00:28:14.222Z,43.12
2023-02-17T00:29:16.740Z,43.13
2023-02-17T00:30:22.038Z,43.11
2023-02-17T00:31:24.738Z,43.17
2023-02-17T00:32:27.229Z,43.20
2023-02-17T00:33:31.127Z,43.22
2023-02-17T00:34:35.377Z,43.20
2023-02-17T00:35:41.340Z,43.21
2023-02-17T00:36:45.186Z,43.48
2023-02-17T00:37:47.516Z,43.57
2023-02-17T00:38:51.454Z,43.56
2023-02-17T00:39:54.471Z,43.63
2023-02-17T00:40:57.049Z,43.63
2023-02-17T00:41:59.845Z,43.64
2023-02-17T00:43:04.108Z,43.76
2023-02-17T00:44:06.754Z,43.73
2023-02-17T00:45:17.742Z,43.74
2023-02-17T00:46:22.740Z,43.74
2023-02-17T00:47:28.799Z,43.78
2023-02-17T00:48:31.296Z,43.79
2023-02-17T00:49:36.320Z,43.80
2023-02-17T00:50:38.930Z,43.81
2023-02-17T00:51:41.636Z,43.84
2023-02-17T00:52:44.641Z,43.89
2023-02-17T00:53:48.717Z,43.88
2023-02-17T00:54:52.689Z,43.90
2023-02-17T00:55:55.861Z,43.91
2023-02-17T00:56:58.319Z,43.96
2023-02-17T00:58:02.269Z,43.97
2023-02-17T00:59:05.913Z,44.00
2023-02-17T01:00:11.077Z,44.00
2023-02-17T01:01:14.525Z,43.97
2023-02-17T01:02:16.945Z,43.85
2023-02-17T01:03:19.274Z,43.85
2023-02-17T01:04:21.908Z,44.03
2023-02-17T01:05:24.268Z,44.14
2023-02-17T01:06:32.998Z,44.04
2023-02-17T01:07:37.739Z,44.04
2023-02-17T01:08:42.363Z,44.00
2023-02-17T01:09:44.604Z,43.96
2023-02-17T01:11:03.363Z,44.05
2023-02-17T01:12:11.516Z,44.05
2023-02-17T01:13:16.328Z,44.06
2023-02-17T01:14:18.899Z,44.07
2023-02-17T01:15:22.154Z,44.07
2023-02-17T01:17:40.930Z,44.07
2023-02-17T01:18:43.109Z,44.11
2023-02-17T01:19:47.933Z,44.11
2023-02-17T01:20:52.669Z,44.09
2023-02-17T01:21:55.002Z,44.09
2023-02-17T01:22:57.395Z,44.05
2023-02-17T01:24:01.316Z,44.01
2023-02-17T01:25:05.928Z,44.04
2023-02-17T01:26:15.443Z,44.05
2023-02-17T01:27:18.828Z,44.02
2023-02-17T01:28:23.361Z,44.06
2023-02-17T01:29:26.343Z,44.06
2023-02-17T01:30:29.559Z,44.08
2023-02-17T01:31:32.316Z,44.01
2023-02-17T01:32:36.539Z,44.06
2023-02-17T01:33:39.323Z,44.02
2023-02-17T01:34:43.591Z,44.05
2023-02-17T01:35:46.686Z,44.04
2023-02-17T01:36:49.775Z,44.01
2023-02-17T01:37:52.773Z,43.97
2023-02-17T01:38:55.600Z,44.00
2023-02-17T01:39:58.630Z,44.02
2023-02-17T01:41:03.486Z,44.00
2023-02-17T01:42:06.915Z,44.00
2023-02-17T01:43:13.214Z,44.01
2023-02-17T01:44:20.095Z,43.99
2023-02-17T01:46:46.706Z,44.04
2023-02-17T01:49:09.443Z,44.04
2023-02-17T01:50:12.777Z,44.04
2023-02-17T01:51:19.611Z,44.02
2023-02-17T01:52:23.765Z,44.00
2023-02-17T01:54:50.571Z,43.98
2023-02-17T01:55:53.788Z,43.98
2023-02-17T01:56:57.240Z,44.02
2023-02-17T01:58:00.665Z,44.01
2023-02-17T01:59:10.327Z,44.02
2023-02-17T02:00:15.539Z,44.00
2023-02-17T02:01:19.330Z,44.01
2023-02-17T02:02:22.302Z,44.00
2023-02-17T02:03:25.995Z,44.00
2023-02-17T02:04:29.975Z,44.00
2023-02-17T02:05:33.015Z,43.98
2023-02-17T02:06:38.064Z,43.97
2023-02-17T02:07:41.718Z,43.97
2023-02-17T02:09:05.413Z,43.94
2023-02-17T02:10:09.291Z,43.96
2023-02-17T02:11:12.120Z,43.98
2023-02-17T02:13:30.056Z,43.95
2023-02-17T02:14:36.490Z,43.99
2023-02-17T02:15:44.728Z,44.01
2023-02-17T02:17:10.729Z,44.03
2023-02-17T02:20:11.068Z,43.91
2023-02-17T02:21:17.639Z,44.05
2023-02-17T02:22:25.143Z,44.00
2023-02-17T02:23:37.281Z,44.00
2023-02-17T02:25:06.341Z,44.00
2023-02-17T02:26:47.069Z,44.01
2023-02-17T02:29:43.614Z,44.03
2023-02-17T02:31:03.592Z,44.13
2023-02-17T02:32:19.403Z,44.12
2023-02-17T02:33:26.396Z,44.20
2023-02-17T02:34:34.802Z,44.16
2023-02-17T02:35:47.627Z,44.21
2023-02-17T02:37:11.381Z,44.26
2023-02-17T02:38:24.101Z,44.30
2023-02-17T02:39:29.935Z,44.24
2023-02-17T02:40:35.017Z,44.19
2023-02-17T02:41:40.932Z,44.22
2023-02-17T02:42:43.475Z,44.21
2023-02-17T02:43:47.717Z,44.20
2023-02-17T02:44:50.040Z,44.22
2023-02-17T02:45:52.899Z,44.22
2023-02-17T02:48:20.601Z,44.16
2023-02-17T02:49:23.073Z,44.17
2023-02-17T02:50:42.636Z,44.18
2023-02-17T02:53:48.994Z,44.60
2023-02-17T02:54:59.574Z,44.68
2023-02-17T02:57:55.996Z,44.76
2023-02-17T03:00:14.584Z,44.75
2023-02-17T03:01:23.626Z,44.72
2023-02-17T03:02:35.784Z,44.76
2023-02-17T03:04:57.028Z,44.76
2023-02-17T03:07:19.196Z,44.71
2023-02-17T03:09:40.298Z,44.63
2023-02-17T03:10:50.640Z,44.62
2023-02-17T03:11:57.043Z,44.59
2023-02-17T03:13:01.831Z,44.60
2023-02-17T03:14:11.066Z,44.57
2023-02-17T03:15:32.671Z,44.59
2023-02-17T03:16:36.715Z,44.65
2023-02-17T03:17:39.327Z,44.44
2023-02-17T03:18:42.585Z,44.44
2023-02-17T03:19:47.047Z,44.62
2023-02-17T03:20:57.185Z,44.59
2023-02-17T03:27:34.486Z,44.64
2023-02-17T03:30:44.397Z,44.48
2023-02-17T03:38:04.004Z,44.49
2023-02-17T03:41:13.189Z,44.46
2023-02-17T03:43:19.398Z,44.45
2023-02-17T03:45:26.408Z,44.45
2023-02-17T03:50:40.288Z,44.30
2023-02-17T03:55:56.051Z,44.27
2023-02-17T03:57:00.541Z,44.22
2023-02-17T03:59:06.863Z,44.25
2023-02-17T04:01:17.063Z,44.27
2023-02-17T04:02:20.264Z,44.11
2023-02-17T04:03:22.821Z,44.06
2023-02-17T04:04:25.225Z,44.10
2023-02-17T04:05:28.782Z,44.03
2023-02-17T04:06:32.225Z,44.02
2023-02-17T04:07:34.790Z,44.04
2023-02-17T04:08:37.685Z,44.39
2023-02-17T04:09:41.708Z,44.39
2023-02-17T04:10:45.828Z,44.12
2023-02-17T04:11:48.292Z,44.12
2023-02-17T04:12:51.424Z,44.06
2023-02-17T04:13:54.586Z,44.16
2023-02-17T04:14:57.829Z,44.15
2023-02-17T04:16:00.880Z,44.18
2023-02-17T04:17:03.522Z,44.17
2023-02-17T04:18:07.005Z,44.13
2023-02-17T04:19:09.738Z,44.22
2023-02-17T04:20:13.518Z,44.23
2023-02-17T04:21:16.015Z,44.28
2023-02-17T04:22:18.975Z,44.23
2023-02-17T04:23:22.591Z,44.34
2023-02-17T04:24:24.969Z,44.35
2023-02-17T04:25:27.511Z,44.36
2023-02-17T04:26:30.130Z,44.54
2023-02-17T04:27:32.479Z,44.56
2023-02-17T04:28:41.391Z,44.58
2023-02-17T04:29:43.746Z,44.55
2023-02-17T04:30:47.797Z,44.55
2023-02-17T04:31:50.822Z,44.62
2023-02-17T04:32:54.418Z,44.64
2023-02-17T04:33:57.018Z,44.75
2023-02-17T04:35:00.115Z,44.85
2023-02-17T04:36:04.644Z,44.93
2023-02-17T04:37:07.551Z,45.03
2023-02-17T04:38:11.636Z,45.08
2023-02-17T04:39:14.253Z,45.08
2023-02-17T04:40:18.633Z,44.98
2023-02-17T04:41:21.390Z,44.92
2023-02-17T04:42:23.687Z,44.85
2023-02-17T04:43:27.054Z,44.99
2023-02-17T04:44:30.670Z,44.94
2023-02-17T04:45:34.322Z,44.94
2023-02-17T04:46:36.848Z,45.08
2023-02-17T04:47:39.155Z,45.08
2023-02-17T04:48:43.421Z,45.10
2023-02-17T04:49:46.985Z,44.97
2023-02-17T04:50:51.352Z,44.97
2023-02-17T04:51:54.157Z,44.97
2023-02-17T04:52:57.452Z,44.89
2023-02-17T04:54:01.528Z,44.88
2023-02-17T04:55:06.372Z,44.85
2023-02-17T04:56:09.789Z,44.83
2023-02-17T04:57:13.047Z,44.77
2023-02-17T04:58:15.563Z,44.75
2023-02-17T04:59:18.339Z,44.72
2023-02-17T05:00:22.413Z,44.77
2023-02-17T05:01:25.428Z,44.68
2023-02-17T05:02:29.824Z,44.68
2023-02-17T05:03:32.741Z,44.66
2023-02-17T05:04:35.191Z,44.67
2023-02-17T05:05:38.209Z,44.67
2023-02-17T05:06:41.747Z,44.81
2023-02-17T05:07:48.360Z,44.74
2023-02-17T05:08:53.056Z,44.77
2023-02-17T05:09:55.513Z,44.75
2023-02-17T05:10:57.899Z,44.86
2023-02-17T05:12:00.291Z,44.92
2023-02-17T05:13:03.864Z,44.88
2023-02-17T05:14:06.700Z,44.90
2023-02-17T05:15:09.618Z,44.94
2023-02-17T05:16:12.542Z,44.98
2023-02-17T05:17:14.935Z,45.01
2023-02-17T05:18:17.581Z,44.98
2023-02-17T05:19:20.311Z,45.09
2023-02-17T05:20:23.704Z,45.06
2023-02-17T05:21:27.251Z,45.01
2023-02-17T05:22:30.716Z,44.97
2023-02-17T05:23:33.340Z,45.00
2023-02-17T05:24:38.582Z,45.00
2023-02-17T05:25:41.794Z,45.05
2023-02-17T05:26:44.528Z,45.07
2023-02-17T05:27:48.120Z,45.04
2023-02-17T05:28:51.643Z,45.08
2023-02-17T05:29:54.282Z,45.01
2023-02-17T05:30:56.962Z,45.01
2023-02-17T05:31:59.457Z,45.02
2023-02-17T05:33:02.635Z,45.07
2023-02-17T05:34:05.117Z,44.96
2023-02-17T05:35:08.001Z,45.05
2023-02-17T05:36:11.183Z,45.00
2023-02-17T05:37:14.479Z,45.02
2023-02-17T05:38:16.862Z,45.10
2023-02-17T05:39:20.066Z,45.13
2023-02-17T05:40:22.711Z,45.06
2023-02-17T05:41:25.143Z,45.00
2023-02-17T05:42:28.434Z,44.82
2023-02-17T05:43:30.933Z,44.61
2023-02-17T05:44:33.660Z,44.56
2023-02-17T05:45:39.149Z,44.52
2023-02-17T05:46:42.704Z,44.39
2023-02-17T05:47:45.568Z,44.39
2023-02-17T05:48:49.484Z,44.31
2023-02-17T05:49:52.029Z,44.15
2023-02-17T05:50:54.481Z,44.17
2023-02-17T05:51:56.839Z,44.12
2023-02-17T05:53:00.436Z,44.13
2023-02-17T05:54:03.301Z,43.97
2023-02-17T05:55:06.894Z,43.97
2023-02-17T05:56:09.731Z,44.09
2023-02-17T05:57:12.056Z,44.07
2023-02-17T05:58:27.834Z,44.02
2023-02-17T05:59:31.879Z,43.97
2023-02-17T06:00:35.320Z,44.01
2023-02-17T06:01:38.436Z,44.01
2023-02-17T06:02:41.016Z,43.96
2023-02-17T06:03:43.717Z,43.96
2023-02-17T06:04:46.246Z,43.95
2023-02-17T06:05:49.605Z,43.93
2023-02-17T06:06:53.045Z,43.85
2023-02-17T06:07:55.602Z,43.92
2023-02-17T06:08:58.335Z,43.92
2023-02-17T06:10:00.904Z,43.74
2023-02-17T06:11:04.434Z,43.76
2023-02-17T06:12:07.658Z,43.64
2023-02-17T06:13:11.463Z,43.62
2023-02-17T06:14:14.569Z,43.57
2023-02-17T06:15:17.208Z,43.49
2023-02-17T06:16:21.153Z,43.49
2023-02-17T06:17:24.492Z,43.35
2023-02-17T06:18:28.890Z,43.35
2023-02-17T06:19:31.831Z,43.45
2023-02-17T06:20:35.453Z,43.51
2023-02-17T06:21:38.133Z,43.37
2023-02-17T06:22:41.619Z,43.39
2023-02-17T06:23:45.023Z,43.34
2023-02-17T06:24:47.497Z,43.34
2023-02-17T06:25:50.959Z,43.34
2023-02-17T06:26:53.762Z,43.28
2023-02-17T06:27:56.174Z,43.27
2023-02-17T06:29:00.197Z,43.33
2023-02-17T06:30:04.385Z,43.19
2023-02-17T06:31:06.814Z,43.11
2023-02-17T06:32:09.935Z,43.05
2023-02-17T06:33:12.531Z,43.09
2023-02-17T06:34:15.250Z,42.98
2023-02-17T06:35:17.858Z,43.17
2023-02-17T06:36:21.211Z,43.17
2023-02-17T06:37:25.027Z,42.88
2023-02-17T06:38:27.498Z,42.88
2023-02-17T06:39:29.918Z,42.83
2023-02-17T06:40:32.419Z,42.83
2023-02-17T06:41:35.357Z,42.77
2023-02-17T06:42:38.785Z,42.77
2023-02-17T06:43:41.226Z,42.81
2023-02-17T06:44:44.362Z,42.77
2023-02-17T06:45:47.612Z,42.76
2023-02-17T06:46:51.055Z,42.77
2023-02-17T06:47:56.182Z,42.80
2023-02-17T06:49:01.622Z,42.79
2023-02-17T06:50:05.269Z,42.73
2023-02-17T06:51:07.769Z,42.70
2023-02-17T06:52:11.230Z,42.74
2023-02-17T06:53:13.643Z,42.68
2023-02-17T06:54:16.263Z,43.06
2023-02-17T06:55:19.312Z,43.06
2023-02-17T06:56:22.597Z,42.74
2023-02-17T06:57:24.939Z,42.81
2023-02-17T06:58:27.363Z,42.85
2023-02-17T06:59:32.336Z,42.91
2023-02-17T07:00:34.821Z,42.96
2023-02-17T07:01:37.403Z,42.99
2023-02-17T07:02:40.328Z,43.16
2023-02-17T07:03:43.394Z,43.17
2023-02-17T07:04:46.279Z,43.16
2023-02-17T07:05:48.591Z,43.17
2023-02-17T07:06:51.318Z,43.26
2023-02-17T07:07:55.363Z,43.08
2023-02-17T07:08:58.812Z,43.08
2023-02-17T07:10:02.808Z,43.39
2023-02-17T07:12:20.440Z,43.64
2023-02-17T07:13:22.829Z,43.57
2023-02-17T07:14:25.549Z,43.58
2023-02-17T07:15:29.478Z,43.67
2023-02-17T07:16:32.566Z,43.56
2023-02-17T07:17:35.031Z,43.60
2023-02-17T07:18:38.611Z,43.29
2023-02-17T07:19:41.476Z,43.07
2023-02-17T07:20:44.522Z,42.95
2023-02-17T07:21:46.950Z,42.93
2023-02-17T07:22:50.215Z,42.87
2023-02-17T07:23:52.486Z,42.93
2023-02-17T07:24:54.906Z,43.07
2023-02-17T07:27:16.057Z,43.19
2023-02-17T07:28:19.799Z,43.15
2023-02-17T07:29:23.853Z,43.20
2023-02-17T07:30:26.403Z,43.17
2023-02-17T07:31:29.289Z,43.19
2023-02-17T07:32:33.330Z,43.33
2023-02-17T07:33:36.155Z,43.33
2023-02-17T07:34:38.733Z,43.30
2023-02-17T07:36:55.717Z,43.21
2023-02-17T07:37:58.749Z,43.22
2023-02-17T07:39:03.151Z,43.22
2023-02-17T07:40:07.706Z,43.26
2023-02-17T07:41:14.252Z,43.19
2023-02-17T07:42:16.545Z,43.24
2023-02-17T07:43:21.879Z,43.25
2023-02-17T07:44:27.246Z,43.29
2023-02-17T07:45:30.548Z,43.30
2023-02-17T07:46:34.701Z,43.37
2023-02-17T07:47:39.690Z,43.41
2023-02-17T07:48:42.207Z,43.43
2023-02-17T07:49:44.921Z,43.42
2023-02-17T07:50:48.463Z,43.49
2023-02-17T07:51:51.680Z,43.50
2023-02-17T07:52:54.125Z,43.53
2023-02-17T07:53:57.591Z,43.53
2023-02-17T07:55:00.618Z,43.54
2023-02-17T07:56:04.789Z,43.51
2023-02-17T07:57:07.596Z,43.60
2023-02-17T07:58:10.477Z,43.60
2023-02-17T07:59:13.633Z,43.58
2023-02-17T08:00:19.618Z,43.54
2023-02-17T08:01:23.633Z,43.48
2023-02-17T08:02:26.232Z,43.44
2023-02-17T08:03:28.615Z,43.47
2023-02-17T08:04:33.341Z,43.53
2023-02-17T08:05:39.654Z,43.50
2023-02-17T08:06:42.548Z,43.58
2023-02-17T08:07:45.107Z,43.55
2023-02-17T08:09:07.305Z,43.48
2023-02-17T08:10:30.343Z,43.54
2023-02-17T08:11:51.586Z,43.47
2023-02-17T08:13:00.810Z,43.57
2023-02-17T08:14:04.391Z,43.65
2023-02-17T08:15:11.679Z,43.73
2023-02-17T08:16:14.767Z,43.80
2023-02-17T08:17:17.044Z,43.90
2023-02-17T08:18:20.484Z,44.08
2023-02-17T08:19:22.847Z,44.24
2023-02-17T08:20:25.461Z,44.26
2023-02-17T08:21:27.787Z,44.30
2023-02-17T08:22:30.344Z,44.26
2023-02-17T08:23:34.759Z,44.27
2023-02-17T08:24:37.293Z,44.28
2023-02-17T08:25:40.607Z,44.30
2023-02-17T08:26:43.491Z,44.44
2023-02-17T08:27:46.427Z,44.52
2023-02-17T08:28:48.902Z,44.47
2023-02-17T08:29:51.872Z,44.35
2023-02-17T08:30:54.994Z,44.37
2023-02-17T08:31:57.718Z,44.35
2023-02-17T08:33:00.283Z,44.34
2023-02-17T08:35:25.780Z,44.25
2023-02-17T08:36:29.849Z,44.26
2023-02-17T08:37:32.482Z,44.29
2023-02-17T08:38:36.300Z,44.23
2023-02-17T08:39:38.823Z,44.21
2023-02-17T08:40:41.743Z,44.23
2023-02-17T08:41:44.973Z,44.20
2023-02-17T08:42:47.732Z,44.20
2023-02-17T08:43:50.565Z,44.20
2023-02-17T08:44:53.005Z,44.16
2023-02-17T08:45:55.250Z,44.17
2023-02-17T08:46:58.953Z,44.11
2023-02-17T08:48:01.722Z,44.26
2023-02-17T08:49:05.103Z,44.26
2023-02-17T08:50:09.461Z,44.10
2023-02-17T08:51:18.125Z,44.17
2023-02-17T08:52:20.700Z,44.17
2023-02-17T08:53:23.003Z,44.17
2023-02-17T08:54:27.452Z,44.23
2023-02-17T08:55:43.968Z,44.20
2023-02-17T08:56:38.659Z,44.11
2023-02-17T08:57:41.209Z,44.08
2023-02-17T08:58:44.662Z,44.04
2023-02-17T08:59:49.175Z,44.08
2023-02-17T09:00:51.785Z,44.06
2023-02-17T09:01:55.150Z,44.08
2023-02-17T09:02:58.341Z,44.16
2023-02-17T09:04:01.816Z,44.16
2023-02-17T09:05:06.418Z,44.12
2023-02-17T09:06:10.966Z,43.95
2023-02-17T09:07:15.239Z,43.60
2023-02-17T09:08:17.747Z,43.40
2023-02-17T09:09:23.948Z,43.29
2023-02-17T09:10:27.485Z,43.12
2023-02-17T09:11:30.234Z,43.16
2023-02-17T09:12:34.344Z,42.96
2023-02-17T09:13:36.933Z,42.91
2023-02-17T09:14:41.129Z,42.91
2023-02-17T09:15:44.460Z,42.91
2023-02-17T09:16:47.949Z,42.92
2023-02-17T09:17:50.343Z,42.92
2023-02-17T09:18:54.487Z,42.96
2023-02-17T09:19:57.997Z,42.97
2023-02-17T09:21:06.585Z,42.98
2023-02-17T09:22:13.611Z,43.00
2023-02-17T09:23:14.030Z,43.00
2023-02-17T09:24:17.221Z,43.01
2023-02-17T09:25:19.973Z,43.02
2023-02-17T09:26:23.833Z,43.04
2023-02-17T09:27:28.332Z,43.04
2023-02-17T09:28:32.049Z,43.06
2023-02-17T09:29:36.789Z,43.09
2023-02-17T09:30:42.336Z,43.08
2023-02-17T09:31:45.664Z,43.11
2023-02-17T09:32:48.254Z,43.10
2023-02-17T09:33:51.266Z,43.13
2023-02-17T09:34:54.309Z,43.15
2023-02-17T09:35:56.977Z,43.15
2023-02-17T09:37:00.236Z,43.16
2023-02-17T09:38:03.330Z,43.16
2023-02-17T09:39:05.774Z,43.16
2023-02-17T09:40:11.640Z,43.18
2023-02-17T09:41:24.510Z,43.15
2023-02-17T09:42:28.030Z,43.15
2023-02-17T09:43:31.305Z,43.15
2023-02-17T09:44:41.291Z,43.13
2023-02-17T09:45:48.744Z,43.11
2023-02-17T09:47:06.087Z,43.11
2023-02-17T09:48:10.654Z,43.10
2023-02-17T09:49:19.848Z,43.19
2023-02-17T09:50:29.227Z,43.31
2023-02-17T09:51:44.779Z,43.25
2023-02-17T09:52:56.835Z,43.31
2023-02-17T09:54:12.068Z,43.02
2023-02-17T09:55:18.591Z,41.49
2023-02-17T09:56:32.570Z,42.45
2023-02-17T09:57:38.957Z,41.94
2023-02-17T10:00:08.761Z,41.64
2023-02-17T10:01:20.726Z,41.62
2023-02-17T10:02:48.286Z,41.50
2023-02-17T10:05:11.754Z,41.10
2023-02-17T10:06:18.377Z,41.90
2023-02-17T10:08:52.933Z,41.64
2023-02-17T10:10:15.955Z,41.83
2023-02-17T10:11:30.487Z,42.24
2023-02-17T10:13:58.764Z,41.19
2023-02-17T10:15:13.679Z,41.52
2023-02-17T10:16:23.990Z,41.12
2023-02-17T10:17:39.284Z,40.08
2023-02-17T10:20:08.139Z,40.68
2023-02-17T10:21:13.146Z,41.05
2023-02-17T10:22:18.440Z,40.82
2023-02-17T10:23:27.627Z,41.45
2023-02-17T10:24:30.676Z,41.61
2023-02-17T10:27:23.196Z,41.17
2023-02-17T10:28:38.512Z,41.40
2023-02-17T10:29:45.776Z,41.07
2023-02-17T10:32:21.767Z,40.33
2023-02-17T10:33:37.552Z,40.91
2023-02-17T10:34:49.099Z,41.19
2023-02-17T10:35:53.709Z,40.99
2023-02-17T10:37:13.273Z,39.16
2023-02-17T10:38:39.386Z,39.39
2023-02-17T10:39:48.839Z,39.53
2023-02-17T10:40:52.431Z,40.71
2023-02-17T10:41:54.834Z,41.07
2023-02-17T10:43:02.742Z,40.82
2023-02-17T10:44:09.036Z,40.93
2023-02-17T10:46:18.667Z,38.78
2023-02-17T10:47:22.235Z,39.10
2023-02-17T10:48:28.462Z,39.06
2023-02-17T10:50:49.247Z,38.62
2023-02-17T10:52:56.869Z,38.70
2023-02-17T10:54:05.470Z,38.48
2023-02-17T10:55:26.732Z,39.96
2023-02-17T10:56:44.758Z,40.18
2023-02-17T10:57:50.251Z,38.70
2023-02-17T10:59:17.687Z,38.14
2023-02-17T11:00:22.640Z,37.84
2023-02-17T11:01:25.705Z,38.14
2023-02-17T11:02:34.193Z,39.45
2023-02-17T11:03:37.649Z,39.06
2023-02-17T11:04:44.487Z,37.69
2023-02-17T11:05:55.240Z,37.56
2023-02-17T11:06:58.023Z,37.59
2023-02-17T11:08:06.106Z,37.92
2023-02-17T11:09:17.936Z,37.66
2023-02-17T11:10:23.278Z,37.77
2023-02-17T11:11:27.411Z,39.29
2023-02-17T11:12:35.695Z,38.15
2023-02-17T11:14:55.373Z,40.07
2023-02-17T11:16:04.621Z,39.70
2023-02-17T11:17:27.821Z,40.29
2023-02-17T11:20:06.173Z,40.40
2023-02-17T11:21:10.842Z,40.42
2023-02-17T11:23:57.580Z,40.26
2023-02-17T11:26:20.180Z,39.11
2023-02-17T11:27:24.229Z,38.33
2023-02-17T11:28:27.039Z,38.53
2023-02-17T11:29:32.005Z,38.37
2023-02-17T11:30:35.390Z,38.25
2023-02-17T11:31:38.069Z,38.81
2023-02-17T11:32:40.591Z,38.38
2023-02-17T11:33:44.230Z,37.99
2023-02-17T11:34:51.505Z,38.35
2023-02-17T11:35:55.420Z,37.77
2023-02-17T11:37:06.678Z,38.20
2023-02-17T11:38:12.486Z,37.60
2023-02-17T11:39:21.326Z,37.44
2023-02-17T11:41:40.700Z,38.76
2023-02-17T11:42:44.088Z,37.99
2023-02-17T11:43:56.803Z,38.00
2023-02-17T11:45:00.880Z,38.12
2023-02-17T11:46:31.318Z,38.26
2023-02-17T11:49:24.701Z,37.74
2023-02-17T11:50:41.346Z,37.99
2023-02-17T11:51:48.033Z,38.57
2023-02-17T11:53:26.250Z,37.83
2023-02-17T11:54:49.461Z,37.73
2023-02-17T11:56:19.397Z,37.99
2023-02-17T11:57:47.339Z,38.97
2023-02-17T11:59:17.212Z,38.61
2023-02-17T12:02:04.328Z,38.50
2023-02-17T12:03:35.172Z,39.18
2023-02-17T12:04:44.955Z,38.89
2023-02-17T12:06:11.000Z,39.07
2023-02-17T12:07:33.900Z,39.05
2023-02-17T12:09:03.327Z,39.37
2023-02-17T12:10:39.558Z,40.70
2023-02-17T12:11:49.722Z,41.38
2023-02-17T12:13:15.801Z,41.57
2023-02-17T12:14:44.002Z,41.80
2023-02-17T12:16:12.875Z,41.87
2023-02-17T12:17:42.376Z,42.17
2023-02-17T12:19:19.529Z,42.49
2023-02-17T12:20:33.073Z,42.62
2023-02-17T12:22:14.029Z,42.80
2023-02-17T12:23:29.466Z,42.90
2023-02-17T12:25:03.722Z,42.97
2023-02-17T12:26:09.953Z,43.36
2023-02-17T12:27:22.258Z,43.29
2023-02-17T12:28:45.791Z,43.42
2023-02-17T12:30:05.359Z,43.44
2023-02-17T12:31:42.437Z,43.66
2023-02-17T12:34:34.623Z,43.66
2023-02-17T12:35:49.423Z,43.72
2023-02-17T12:36:53.235Z,43.72
2023-02-17T12:38:09.739Z,43.76
2023-02-17T12:39:21.927Z,43.77
2023-02-17T12:40:40.710Z,43.80
2023-02-17T12:42:04.579Z,43.82
2023-02-17T12:43:28.909Z,43.84
2023-02-17T12:45:49.339Z,43.82
2023-02-17T12:49:42.157Z,43.96
2023-02-17T12:50:58.953Z,44.01
2023-02-17T12:52:07.957Z,44.11
2023-02-17T12:53:16.876Z,44.45
2023-02-17T12:54:44.168Z,44.66
2023-02-17T12:57:16.749Z,44.46
2023-02-17T12:58:25.779Z,44.45
2023-02-17T12:59:33.846Z,44.41
2023-02-17T13:00:41.255Z,44.44
2023-02-17T13:01:50.989Z,44.51
2023-02-17T13:04:12.321Z,44.43
2023-02-17T13:06:36.936Z,44.48
2023-02-17T13:07:46.971Z,44.48
2023-02-17T13:08:55.530Z,44.50
2023-02-17T13:09:59.022Z,44.44
2023-02-17T13:11:04.803Z,44.51
2023-02-17T13:13:32.600Z,44.63
2023-02-17T13:14:44.392Z,44.68
2023-02-17T13:15:47.344Z,44.76
2023-02-17T13:16:51.628Z,44.83
2023-02-17T13:17:59.816Z,44.88
2023-02-17T13:19:06.381Z,44.83
2023-02-17T13:20:14.101Z,44.83
2023-02-17T13:21:24.302Z,44.83
2023-02-17T13:22:27.114Z,44.92
2023-02-17T13:23:37.235Z,44.97
2023-02-17T13:24:51.483Z,45.01
2023-02-17T13:26:20.523Z,44.93
2023-02-17T13:27:38.740Z,44.93
2023-02-17T13:28:41.644Z,44.91
2023-02-17T13:29:43.920Z,44.99
2023-02-17T13:30:49.509Z,44.95
2023-02-17T13:31:54.033Z,44.95
2023-02-17T13:33:19.281Z,44.89
2023-02-17T13:34:28.090Z,44.94
2023-02-17T13:35:33.827Z,44.90
2023-02-17T13:36:37.310Z,44.97
2023-02-17T13:38:59.201Z,44.97
2023-02-17T13:40:19.466Z,44.97
2023-02-17T13:41:22.513Z,44.97
2023-02-17T13:42:38.129Z,44.91
2023-02-17T13:43:44.776Z,44.92
2023-02-17T13:44:49.227Z,44.80
2023-02-17T13:46:02.640Z,44.80
2023-02-17T13:48:29.103Z,44.83
2023-02-17T13:49:36.401Z,44.83
2023-02-17T13:51:55.564Z,44.69
2023-02-17T13:52:58.055Z,44.61
2023-02-17T13:54:08.448Z,44.59
2023-02-17T13:55:16.838Z,44.59
2023-02-17T13:56:27.599Z,44.58
2023-02-17T13:57:35.270Z,44.55
2023-02-17T13:58:41.031Z,44.57
2023-02-17T13:59:43.453Z,44.57
2023-02-17T14:00:47.367Z,44.55
2023-02-17T14:01:50.438Z,44.55
2023-02-17T14:02:59.419Z,44.55
2023-02-17T14:04:03.248Z,44.59
2023-02-17T14:05:19.258Z,44.65
2023-02-17T14:06:26.715Z,44.65
2023-02-17T14:07:29.305Z,44.51
2023-02-17T14:08:42.422Z,44.52
2023-02-17T14:09:48.559Z,44.57
2023-02-17T14:10:51.041Z,44.65
2023-02-17T14:11:54.175Z,44.71
2023-02-17T14:12:56.836Z,44.75
2023-02-17T14:14:01.306Z,44.75
2023-02-17T14:15:06.020Z,44.68
2023-02-17T14:16:28.321Z,44.41
2023-02-17T14:17:33.126Z,44.19
2023-02-17T14:18:38.594Z,43.87
2023-02-17T14:19:47.663Z,43.66
2023-02-17T14:20:51.041Z,43.44
2023-02-17T14:22:00.954Z,43.29
2023-02-17T14:23:11.743Z,43.02
2023-02-17T14:24:25.167Z,42.66
2023-02-17T14:25:30.115Z,42.15
2023-02-17T14:26:46.588Z,42.08
2023-02-17T14:29:06.418Z,41.63
2023-02-17T14:30:14.647Z,41.49
2023-02-17T14:31:18.770Z,41.05
2023-02-17T14:32:39.728Z,41.06
2023-02-17T14:33:42.398Z,40.87
2023-02-17T14:34:44.626Z,40.61
2023-02-17T14:37:24.674Z,40.38
2023-02-17T14:38:36.840Z,40.25
2023-02-17T14:39:39.793Z,40.25
2023-02-17T14:40:43.054Z,40.17
2023-02-17T14:41:46.259Z,39.99
2023-02-17T14:42:50.400Z,39.87
2023-02-17T14:43:53.730Z,39.99
2023-02-17T14:44:56.816Z,39.99
2023-02-17T14:45:59.816Z,39.87
2023-02-17T14:47:03.787Z,39.37
2023-02-17T14:48:07.021Z,39.75
2023-02-17T14:49:10.163Z,39.86
2023-02-17T14:50:15.575Z,39.89
2023-02-17T14:52:35.358Z,39.89
2023-02-17T14:53:40.737Z,39.82
2023-02-17T14:54:43.770Z,39.80
2023-02-17T14:55:50.999Z,39.62
2023-02-17T14:57:06.734Z,39.46
2023-02-17T14:58:13.018Z,39.40
2023-02-17T14:59:16.124Z,39.72
2023-02-17T15:00:20.965Z,39.82
2023-02-17T15:01:25.209Z,40.05
2023-02-17T15:02:29.686Z,40.27
2023-02-17T15:03:32.952Z,40.45
2023-02-17T15:04:36.418Z,40.64
2023-02-17T15:05:40.721Z,40.63
2023-02-17T15:06:47.268Z,41.12
2023-02-17T15:07:49.950Z,41.21
2023-02-17T15:08:52.879Z,41.25
2023-02-17T15:09:56.523Z,41.34
2023-02-17T15:10:59.343Z,41.41
2023-02-17T15:12:02.298Z,41.53
2023-02-17T15:13:05.964Z,41.75
2023-02-17T15:14:16.109Z,41.88
2023-02-17T15:15:20.903Z,41.89
2023-02-17T15:16:24.410Z,42.04
2023-02-17T15:17:26.874Z,42.09
2023-02-17T15:18:31.334Z,42.14
2023-02-17T15:19:35.950Z,42.21
2023-02-17T15:20:38.993Z,42.24
2023-02-17T15:21:48.502Z,42.35
2023-02-17T15:22:53.784Z,42.40
2023-02-17T15:23:58.436Z,42.45
2023-02-17T15:25:01.527Z,42.46
2023-02-17T15:26:05.856Z,42.50
2023-02-17T15:27:12.048Z,42.68
2023-02-17T15:28:16.020Z,42.78
2023-02-17T15:29:20.652Z,42.84
2023-02-17T15:30:24.982Z,42.82
2023-02-17T15:31:29.622Z,42.82
2023-02-17T15:33:57.045Z,42.66
2023-02-17T15:35:01.411Z,42.63
2023-02-17T15:37:19.624Z,42.44
2023-02-17T15:38:25.101Z,42.38
2023-02-17T15:39:30.354Z,42.27
2023-02-17T15:40:34.512Z,42.22
2023-02-17T15:41:38.741Z,42.16
2023-02-17T15:42:42.483Z,42.06
2023-02-17T15:43:46.150Z,42.04
2023-02-17T15:44:50.360Z,42.03
2023-02-17T15:45:53.649Z,42.05
2023-02-17T15:46:58.684Z,42.05
2023-02-17T15:48:06.499Z,42.06
2023-02-17T15:49:10.327Z,42.06
2023-02-17T15:51:33.228Z,41.97
2023-02-17T15:52:36.633Z,41.92
2023-02-17T15:53:38.910Z,41.89